RJTQ(METAR)
12/11 16:00
RJTQ 110700Z 08019KT 9999 RA SCT015 BKN020 BKN025 15/13 Q1023 RMK
A3023=
戻る
トップページへ戻る
IMOC Co,.Ltd.